createdAt,value
2023-11-01T00:00:09.464Z,2.70
2023-11-01T00:02:57.766Z,2.50
2023-11-01T00:05:48.720Z,2.40
2023-11-01T00:08:36.968Z,3.00
2023-11-01T00:11:25.315Z,2.80
2023-11-01T00:14:13.413Z,2.97
2023-11-01T00:17:01.505Z,2.80
2023-11-01T00:19:49.627Z,2.63
2023-11-01T00:22:39.078Z,2.83
2023-11-01T00:25:27.187Z,2.27
2023-11-01T00:28:15.275Z,2.63
2023-11-01T00:31:03.709Z,2.60
2023-11-01T00:33:52.123Z,2.87
2023-11-01T00:36:40.254Z,2.80
2023-11-01T00:39:30.130Z,2.97
2023-11-01T00:42:18.487Z,3.00
2023-11-01T00:45:07.459Z,2.93
2023-11-01T00:47:55.878Z,3.03
2023-11-01T00:50:46.273Z,2.57
2023-11-01T00:53:34.420Z,4.63
2023-11-01T00:56:23.893Z,3.20
2023-11-01T00:59:11.970Z,2.57
2023-11-01T01:01:59.997Z,2.20
2023-11-01T01:04:48.244Z,2.50
2023-11-01T01:07:36.382Z,2.27
2023-11-01T01:10:24.499Z,2.40
2023-11-01T01:13:13.919Z,2.23
2023-11-01T01:16:04.340Z,2.37
2023-11-01T01:18:52.558Z,2.43
2023-11-01T01:21:40.862Z,2.40
2023-11-01T01:24:29.255Z,2.30
2023-11-01T01:27:17.367Z,2.53
2023-11-01T01:30:08.984Z,2.10
2023-11-01T01:32:57.135Z,2.40
2023-11-01T01:35:45.275Z,2.47
2023-11-01T01:38:33.452Z,2.20
2023-11-01T01:41:21.728Z,2.50
2023-11-01T01:44:10.468Z,2.60
2023-11-01T01:47:01.840Z,2.50
2023-11-01T01:49:51.006Z,2.50
2023-11-01T01:52:39.547Z,2.50
2023-11-01T01:55:27.646Z,3.20
2023-11-01T01:58:16.187Z,2.90
2023-11-01T02:01:05.772Z,3.00
2023-11-01T02:03:55.197Z,2.50
2023-11-01T02:06:44.964Z,2.47
2023-11-01T02:09:33.205Z,2.80
2023-11-01T02:12:25.929Z,3.20
2023-11-01T02:15:14.006Z,2.80
2023-11-01T02:18:02.160Z,2.60
2023-11-01T02:20:53.260Z,2.57
2023-11-01T02:23:44.924Z,2.77
2023-11-01T02:26:33.142Z,2.63
2023-11-01T02:29:23.606Z,3.20
2023-11-01T02:32:11.739Z,2.67
2023-11-01T02:34:59.855Z,3.57
2023-11-01T02:37:49.089Z,3.03
2023-11-01T02:40:38.646Z,2.97
2023-11-01T02:43:26.720Z,3.20
2023-11-01T02:46:15.763Z,2.80
2023-11-01T02:49:05.138Z,3.07
2023-11-01T02:51:53.615Z,2.90
2023-11-01T02:54:41.714Z,3.60
2023-11-01T02:57:33.280Z,2.73
2023-11-01T03:00:21.684Z,3.00
2023-11-01T03:03:10.015Z,2.80
2023-11-01T03:05:58.228Z,3.20
2023-11-01T03:08:47.407Z,3.23
2023-11-01T03:11:35.921Z,3.78
2023-11-01T03:14:25.372Z,2.97
2023-11-01T03:17:13.645Z,3.23
2023-11-01T03:20:01.708Z,3.23
2023-11-01T03:22:50.228Z,3.20
2023-11-01T03:25:38.284Z,3.17
2023-11-01T03:28:26.354Z,3.20
2023-11-01T03:31:20.223Z,3.10
2023-11-01T03:34:08.494Z,3.30
2023-11-01T03:36:56.538Z,3.30
2023-11-01T03:39:44.658Z,2.97
2023-11-01T03:42:32.948Z,3.50
2023-11-01T03:45:21.086Z,3.00
2023-11-01T03:48:10.613Z,2.90
2023-11-01T03:50:58.849Z,3.10
2023-11-01T03:53:46.948Z,3.10
2023-11-01T03:56:36.152Z,2.73
2023-11-01T03:59:24.509Z,2.63
2023-11-01T04:02:12.644Z,2.70
2023-11-01T04:05:02.091Z,2.63
2023-11-01T04:07:50.622Z,2.77
2023-11-01T04:10:38.747Z,2.53
2023-11-01T04:13:26.782Z,2.80
2023-11-01T04:16:14.846Z,2.40
2023-11-01T04:19:03.557Z,2.30
2023-11-01T04:21:54.169Z,2.20
2023-11-01T04:24:42.959Z,2.13
2023-11-01T04:27:31.148Z,2.23
2023-11-01T04:30:19.395Z,2.43
2023-11-01T04:33:08.585Z,2.40
2023-11-01T04:35:56.699Z,2.40
2023-11-01T04:38:48.421Z,2.60
2023-11-01T04:41:36.660Z,2.07
2023-11-01T04:44:25.021Z,2.47
2023-11-01T04:47:13.641Z,2.60
2023-11-01T04:50:02.098Z,2.20
2023-11-01T04:52:50.494Z,2.60
2023-11-01T04:55:39.910Z,2.10
2023-11-01T04:58:27.941Z,2.40
2023-11-01T05:01:16.174Z,2.23
2023-11-01T05:04:04.409Z,2.73
2023-11-01T05:06:53.071Z,2.20
2023-11-01T05:09:41.226Z,2.53
2023-11-01T05:12:30.609Z,2.33
2023-11-01T05:15:18.936Z,2.30
2023-11-01T05:18:07.249Z,2.20
2023-11-01T05:20:55.980Z,2.20
2023-11-01T05:23:46.081Z,2.20
2023-11-01T05:26:35.859Z,2.57
2023-11-01T05:29:25.400Z,2.30
2023-11-01T05:32:13.540Z,2.00
2023-11-01T05:35:01.709Z,1.70
2023-11-01T05:37:50.062Z,1.67
2023-11-01T05:40:38.193Z,1.63
2023-11-01T05:43:26.281Z,1.67
2023-11-01T05:46:15.929Z,1.60
2023-11-01T05:49:05.429Z,1.53
2023-11-01T05:51:54.625Z,1.30
2023-11-01T05:54:42.747Z,1.43
2023-11-01T05:57:31.309Z,1.50
2023-11-01T06:00:20.204Z,1.47
2023-11-01T06:03:10.326Z,1.50
2023-11-01T06:05:59.812Z,1.07
2023-11-01T06:08:48.125Z,1.30
2023-11-01T06:11:36.306Z,1.00
2023-11-01T06:14:24.539Z,1.20
2023-11-01T06:17:12.535Z,1.37
2023-11-01T06:20:02.037Z,1.30
2023-11-01T06:22:50.200Z,1.20
2023-11-01T06:25:38.765Z,1.40
2023-11-01T06:28:27.586Z,1.27
2023-11-01T06:31:17.168Z,1.13
2023-11-01T06:34:05.596Z,1.10
2023-11-01T06:36:55.015Z,1.20
2023-11-01T06:39:43.194Z,1.33
2023-11-01T06:42:31.422Z,1.20
2023-11-01T06:45:19.537Z,1.47
2023-11-01T06:48:09.982Z,1.20
2023-11-01T06:50:58.136Z,1.20
2023-11-01T06:53:47.690Z,1.40
2023-11-01T06:56:35.894Z,1.17
2023-11-01T06:59:24.017Z,1.43
2023-11-01T07:02:12.118Z,1.30
2023-11-01T07:05:00.140Z,1.20
2023-11-01T07:07:48.342Z,1.10
2023-11-01T07:10:37.810Z,1.40
2023-11-01T07:13:28.499Z,1.30
2023-11-01T07:16:17.144Z,1.60
2023-11-01T07:19:05.345Z,1.60
2023-11-01T07:21:53.481Z,1.80
2023-11-01T07:24:41.945Z,1.80
2023-11-01T07:27:31.431Z,1.93
2023-11-01T07:30:19.743Z,1.97
2023-11-01T07:33:07.898Z,2.50
2023-11-01T07:35:56.712Z,2.40
2023-11-01T07:38:44.942Z,2.43
2023-11-01T07:41:33.373Z,2.57
2023-11-01T07:44:22.955Z,2.53
2023-11-01T07:47:11.112Z,2.90
2023-11-01T07:49:59.232Z,2.87
2023-11-01T07:52:47.394Z,2.17
2023-11-01T07:55:35.549Z,2.87
2023-11-01T07:58:23.811Z,2.90
2023-11-01T08:01:13.311Z,2.67
2023-11-01T08:04:01.535Z,5.60
2023-11-01T08:06:49.805Z,3.50
2023-11-01T08:09:37.960Z,2.97
2023-11-01T08:12:26.136Z,3.00
2023-11-01T08:15:14.522Z,3.20
2023-11-01T08:18:04.263Z,3.50
2023-11-01T08:20:54.684Z,3.07
2023-11-01T08:23:43.047Z,2.73
2023-11-01T08:26:32.197Z,3.00
2023-11-01T08:29:20.378Z,3.33
2023-11-01T08:32:08.976Z,2.80
2023-11-01T08:34:58.998Z,3.10
2023-11-01T08:37:47.770Z,3.20
2023-11-01T08:40:35.816Z,3.00
2023-11-01T08:43:23.870Z,3.27
2023-11-01T08:46:13.122Z,2.80
2023-11-01T08:49:01.321Z,2.77
2023-11-01T08:51:50.793Z,2.50
2023-11-01T08:54:39.705Z,2.63
2023-11-01T08:57:27.982Z,2.70
2023-11-01T09:00:17.245Z,2.50
2023-11-01T09:03:05.540Z,2.60
2023-11-01T09:05:53.875Z,3.10
2023-11-01T09:08:43.858Z,2.93
2023-11-01T09:11:31.974Z,2.60
2023-11-01T09:14:20.759Z,2.70
2023-11-01T09:17:09.005Z,2.40
2023-11-01T09:19:57.343Z,2.57
2023-11-01T09:22:46.003Z,2.83
2023-11-01T09:25:35.559Z,2.70
2023-11-01T09:28:23.629Z,2.73
2023-11-01T09:31:11.807Z,2.30
2023-11-01T09:34:00.033Z,2.30
2023-11-01T09:36:48.144Z,2.80
2023-11-01T09:39:36.208Z,2.43
2023-11-01T09:42:26.693Z,2.50
2023-11-01T09:45:15.103Z,2.23
2023-11-01T09:48:04.089Z,2.70
2023-11-01T09:50:54.527Z,2.70
2023-11-01T09:53:42.675Z,2.63
2023-11-01T09:56:34.563Z,2.83
2023-11-01T09:59:24.733Z,2.70
2023-11-01T10:02:13.283Z,2.67
2023-11-01T10:05:01.499Z,3.10
2023-11-01T10:07:49.779Z,3.27
2023-11-01T10:10:38.094Z,2.80
2023-11-01T10:13:26.239Z,3.50
2023-11-01T10:16:16.127Z,3.20
2023-11-01T10:19:04.809Z,2.97
2023-11-01T10:21:53.134Z,2.33
2023-11-01T10:24:43.283Z,2.77
2023-11-01T10:27:31.657Z,2.67
2023-11-01T10:30:20.066Z,2.90
2023-11-01T10:33:10.242Z,2.37
2023-11-01T10:36:02.341Z,2.97
2023-11-01T10:38:52.599Z,3.03
2023-11-01T10:41:41.451Z,3.07
2023-11-01T10:44:29.597Z,2.57
2023-11-01T10:47:18.440Z,2.67
2023-11-01T10:50:09.885Z,2.57
2023-11-01T10:52:59.491Z,2.70
2023-11-01T10:55:47.555Z,2.30
2023-11-01T10:58:42.025Z,2.87
2023-11-01T11:01:38.236Z,2.40
2023-11-01T11:04:32.637Z,2.40
2023-11-01T11:07:46.942Z,2.93
2023-11-01T11:10:35.770Z,2.53
2023-11-01T11:13:30.814Z,2.00
2023-11-01T11:16:22.118Z,2.30
2023-11-01T11:19:11.151Z,2.30
2023-11-01T11:22:04.449Z,2.40
2023-11-01T11:24:58.232Z,2.30
2023-11-01T11:27:53.302Z,2.30
2023-11-01T11:31:09.854Z,2.27
2023-11-01T11:34:14.747Z,2.23
2023-11-01T11:37:09.492Z,2.20
2023-11-01T11:40:08.959Z,1.90
2023-11-01T11:42:57.066Z,2.10
2023-11-01T11:45:46.101Z,2.17
2023-11-01T11:48:43.699Z,2.30
2023-11-01T11:51:35.167Z,2.00
2023-11-01T11:54:24.970Z,1.80
2023-11-01T11:57:17.499Z,1.60
2023-11-01T12:00:09.004Z,2.30
2023-11-01T12:02:58.186Z,2.07
2023-11-01T12:05:46.388Z,2.20
2023-11-01T12:08:38.666Z,2.70
2023-11-01T12:11:30.740Z,2.20
2023-11-01T12:14:21.448Z,1.97
2023-11-01T12:17:10.053Z,1.97
2023-11-01T12:19:58.992Z,2.30
2023-11-01T12:22:47.289Z,1.93
2023-11-01T12:25:35.364Z,2.00
2023-11-01T12:28:23.511Z,2.03
2023-11-01T12:31:19.359Z,2.20
2023-11-01T12:34:11.188Z,2.00
2023-11-01T12:37:07.220Z,1.93
2023-11-01T12:40:05.314Z,1.97
2023-11-01T12:43:09.297Z,2.07
2023-11-01T12:45:57.465Z,2.40
2023-11-01T12:48:47.129Z,2.07
2023-11-01T12:51:35.344Z,2.20
2023-11-01T12:54:23.524Z,2.10
2023-11-01T12:57:11.783Z,1.83
2023-11-01T12:59:59.877Z,1.80
2023-11-01T13:02:48.239Z,2.30
2023-11-01T13:05:37.878Z,2.40
2023-11-01T13:08:26.361Z,2.07
2023-11-01T13:11:14.422Z,2.33
2023-11-01T13:14:02.510Z,2.43
2023-11-01T13:16:50.894Z,1.90
2023-11-01T13:19:39.014Z,2.03
2023-11-01T13:22:28.572Z,1.77
2023-11-01T13:25:16.809Z,2.13
2023-11-01T13:28:05.171Z,2.10
2023-11-01T13:30:53.411Z,2.27
2023-11-01T13:33:42.102Z,2.20
2023-11-01T13:36:30.262Z,3.20
2023-11-01T13:39:19.807Z,2.27
2023-11-01T13:42:08.584Z,2.07
2023-11-01T13:44:56.871Z,2.03
2023-11-01T13:47:45.155Z,2.47
2023-11-01T13:50:33.198Z,2.43
2023-11-01T13:53:24.334Z,2.60
2023-11-01T13:56:14.313Z,2.07
2023-11-01T13:59:03.022Z,2.23
2023-11-01T14:01:51.156Z,1.60
2023-11-01T14:04:39.330Z,1.57
2023-11-01T14:07:27.866Z,1.80
2023-11-01T14:10:17.491Z,1.83
2023-11-01T14:13:07.183Z,1.70
2023-11-01T14:15:57.505Z,2.00
2023-11-01T14:18:46.880Z,1.93
2023-11-01T14:21:35.817Z,1.50
2023-11-01T14:24:24.872Z,1.57
2023-11-01T14:27:13.176Z,2.50
2023-11-01T14:30:02.705Z,1.83
2023-11-01T14:32:51.756Z,1.67
2023-11-01T14:35:40.768Z,1.67
2023-11-01T14:38:28.891Z,1.70
2023-11-01T14:41:17.075Z,1.57
2023-11-01T14:44:06.341Z,1.93
2023-11-01T14:46:56.209Z,1.63
2023-11-01T14:49:44.400Z,2.00
2023-11-01T14:52:32.852Z,1.80
2023-11-01T14:55:21.720Z,1.60
2023-11-01T14:58:09.832Z,1.60
2023-11-01T15:00:58.235Z,1.90
2023-11-01T15:03:48.034Z,1.70
2023-11-01T15:06:37.460Z,2.20
2023-11-01T15:09:25.548Z,1.60
2023-11-01T15:12:13.684Z,1.60
2023-11-01T15:15:01.995Z,1.50
2023-11-01T15:17:53.224Z,1.43
2023-11-01T15:20:42.957Z,1.40
2023-11-01T15:23:31.128Z,1.63
2023-11-01T15:26:20.438Z,1.40
2023-11-01T15:29:08.592Z,1.70
2023-11-01T15:31:56.685Z,1.47
2023-11-01T15:34:46.909Z,1.50
2023-11-01T15:37:36.434Z,1.20
2023-11-01T15:40:24.543Z,1.50
2023-11-01T15:43:12.684Z,1.23
2023-11-01T15:46:00.910Z,1.53
2023-11-01T15:48:49.102Z,2.70
2023-11-01T15:51:37.140Z,1.93
2023-11-01T15:54:26.546Z,1.37
2023-11-01T15:57:15.090Z,1.00
2023-11-01T16:00:03.564Z,1.30
2023-11-01T16:02:51.930Z,1.30
2023-11-01T16:05:42.245Z,1.00
2023-11-01T16:08:30.557Z,1.20
2023-11-01T16:11:20.223Z,2.10
2023-11-01T16:14:09.514Z,1.90
2023-11-01T16:16:57.600Z,1.20
2023-11-01T16:19:45.626Z,1.60
2023-11-01T16:22:33.946Z,1.20
2023-11-01T16:25:22.066Z,1.10
2023-11-01T16:28:11.465Z,1.20
2023-11-01T16:30:59.649Z,1.50
2023-11-01T16:33:47.848Z,1.30
2023-11-01T16:36:35.964Z,1.60
2023-11-01T16:39:24.737Z,1.33
2023-11-01T16:42:13.912Z,1.27
2023-11-01T16:45:03.866Z,1.00
2023-11-01T16:47:52.262Z,1.40
2023-11-01T16:50:40.562Z,1.00
2023-11-01T16:53:31.149Z,1.53
2023-11-01T16:56:19.329Z,1.17
2023-11-01T16:59:07.373Z,1.30
2023-11-01T17:01:56.802Z,1.10
2023-11-01T17:04:45.016Z,1.00
2023-11-01T17:07:33.151Z,1.00
2023-11-01T17:10:22.039Z,1.00
2023-11-01T17:13:10.395Z,0.80
2023-11-01T17:15:59.531Z,1.23
2023-11-01T17:18:49.106Z,0.97
2023-11-01T17:21:37.181Z,1.10
2023-11-01T17:24:27.630Z,1.43
2023-11-01T17:27:15.675Z,1.17
2023-11-01T17:30:06.200Z,0.90
2023-11-01T17:32:55.261Z,1.23
2023-11-01T17:35:44.789Z,1.37
2023-11-01T17:38:40.838Z,1.50
2023-11-01T17:41:57.034Z,1.20
2023-11-01T17:44:48.332Z,1.23
2023-11-01T17:47:38.205Z,1.33
2023-11-01T17:50:27.363Z,1.33
2023-11-01T17:53:16.837Z,1.33
2023-11-01T17:56:05.421Z,1.30
2023-11-01T17:58:57.486Z,0.97
2023-11-01T18:01:45.682Z,1.10
2023-11-01T18:04:34.358Z,1.10
2023-11-01T18:07:22.457Z,1.13
2023-11-01T18:10:12.108Z,0.93
2023-11-01T18:13:00.188Z,1.33
2023-11-01T18:15:49.024Z,1.10
2023-11-01T18:18:46.435Z,1.33
2023-11-01T18:21:35.503Z,1.10
2023-11-01T18:24:41.153Z,1.23
2023-11-01T18:27:30.533Z,1.80
2023-11-01T18:30:20.492Z,1.10
2023-11-01T18:33:10.574Z,1.50
2023-11-01T18:35:58.672Z,1.20
2023-11-01T18:38:52.284Z,1.37
2023-11-01T18:41:41.497Z,1.33
2023-11-01T18:44:36.003Z,1.10
2023-11-01T18:47:30.173Z,1.33
2023-11-01T18:50:18.373Z,1.47
2023-11-01T18:53:08.990Z,1.33
2023-11-01T18:55:57.331Z,1.67
2023-11-01T18:58:45.347Z,1.50
2023-11-01T19:01:34.880Z,1.20
2023-11-01T19:04:23.380Z,1.57
2023-11-01T19:07:12.771Z,1.10
2023-11-01T19:10:01.146Z,1.40
2023-11-01T19:12:49.725Z,1.50
2023-11-01T19:16:13.627Z,1.17
2023-11-01T19:19:03.191Z,1.37
2023-11-01T19:21:51.235Z,1.20
2023-11-01T19:24:41.162Z,1.50
2023-11-01T19:27:29.330Z,1.30
2023-11-01T19:30:17.680Z,1.40
2023-11-01T19:33:06.311Z,1.40
2023-11-01T19:36:04.633Z,1.37
2023-11-01T19:38:59.351Z,1.07
2023-11-01T19:41:48.234Z,1.30
2023-11-01T19:44:36.751Z,1.20
2023-11-01T19:47:24.852Z,1.33
2023-11-01T19:50:14.502Z,1.20
2023-11-01T19:53:04.465Z,1.00
2023-11-01T19:55:52.586Z,1.30
2023-11-01T19:58:41.166Z,1.27
2023-11-01T20:01:31.223Z,1.43
2023-11-01T20:04:19.329Z,1.20
2023-11-01T20:07:09.937Z,1.67
2023-11-01T20:10:01.186Z,1.27
2023-11-01T20:12:49.483Z,1.20
2023-11-01T20:15:38.330Z,0.80
2023-11-01T20:18:26.837Z,0.87
2023-11-01T20:21:15.294Z,1.27
2023-11-01T20:24:04.959Z,1.40
2023-11-01T20:26:54.719Z,1.10
2023-11-01T20:29:43.181Z,1.80
2023-11-01T20:32:31.308Z,1.40
2023-11-01T20:35:19.409Z,1.40
2023-11-01T20:38:08.334Z,1.30
2023-11-01T20:40:58.752Z,0.93
2023-11-01T20:43:48.345Z,1.27
2023-11-01T20:46:36.392Z,1.67
2023-11-01T20:49:25.170Z,1.17
2023-11-01T20:52:13.206Z,1.60
2023-11-01T20:55:02.565Z,1.80
2023-11-01T20:57:50.895Z,1.60
2023-11-01T21:00:40.460Z,1.80
2023-11-01T21:03:28.717Z,1.30
2023-11-01T21:06:18.590Z,1.53
2023-11-01T21:09:07.419Z,1.33
2023-11-01T21:11:55.560Z,1.77
2023-11-01T21:14:43.596Z,1.30
2023-11-01T21:17:34.043Z,1.47
2023-11-01T21:20:22.272Z,1.10
2023-11-01T21:23:10.390Z,1.00
2023-11-01T21:25:59.144Z,0.80
2023-11-01T21:28:47.341Z,1.50
2023-11-01T21:31:35.619Z,0.87
2023-11-01T21:34:25.907Z,1.13
2023-11-01T21:37:13.985Z,1.50
2023-11-01T21:40:02.106Z,1.50
2023-11-01T21:42:50.414Z,1.50
2023-11-01T21:45:50.517Z,1.50
2023-11-01T21:48:38.962Z,2.17
2023-11-01T21:51:30.672Z,1.20
2023-11-01T21:54:25.653Z,0.73
2023-11-01T21:57:14.666Z,0.67
2023-11-01T22:00:05.810Z,0.87
2023-11-01T22:02:53.922Z,0.80
2023-11-01T22:05:41.999Z,0.60
2023-11-01T22:09:00.027Z,0.93
2023-11-01T22:11:49.733Z,0.63
2023-11-01T22:14:39.581Z,0.93
2023-11-01T22:17:37.589Z,0.50
2023-11-01T22:20:27.704Z,0.80
2023-11-01T22:23:15.772Z,0.53
2023-11-01T22:26:07.066Z,0.60
2023-11-01T22:28:55.100Z,0.90
2023-11-01T22:31:50.180Z,0.60
2023-11-01T22:34:41.760Z,0.63
2023-11-01T22:37:30.375Z,0.50
2023-11-01T22:40:18.498Z,0.37
2023-11-01T22:43:08.548Z,0.53
2023-11-01T22:45:58.539Z,0.80
2023-11-01T22:48:47.027Z,0.83
2023-11-01T22:51:35.199Z,0.80
2023-11-01T22:54:23.990Z,0.63
2023-11-01T22:57:12.492Z,1.07
2023-11-01T23:00:01.933Z,0.97
2023-11-01T23:02:50.727Z,0.77
2023-11-01T23:05:41.192Z,0.77
2023-11-01T23:08:29.903Z,1.20
2023-11-01T23:11:18.046Z,1.00
2023-11-01T23:14:06.805Z,1.10
2023-11-01T23:16:57.007Z,1.30
2023-11-01T23:19:45.034Z,1.10
2023-11-01T23:22:35.023Z,1.30
2023-11-01T23:25:30.909Z,1.13
2023-11-01T23:28:51.802Z,1.30
2023-11-01T23:31:39.942Z,1.50
2023-11-01T23:34:44.818Z,1.20
2023-11-01T23:37:36.400Z,1.10
2023-11-01T23:40:39.137Z,0.83
2023-11-01T23:43:35.440Z,1.13
2023-11-01T23:46:24.342Z,1.20
2023-11-01T23:49:33.187Z,1.00
2023-11-01T23:52:24.252Z,0.90
2023-11-01T23:55:12.329Z,1.40
2023-11-01T23:58:01.677Z,1.40
